Time;durP1;ratioP1;P1;durP2;ratioP2;P2;SDS_P1;SDS_P2;PMS_P1;PMS_P2;Temp;Humidity;BMP_temperature;BMP_pressure;BME280_temperature;BME280_humidity;BME280_pressure;Samples;Min_cycle;Max_cycle;Signal;HPM_P1;HPM_P2
2023/10/05 08:51:44;;;;;;;7.80;6.00;;;;;;;23.76;52.95;99509.09;2095011;27;21017;-68
2023/10/05 08:53:31;;;;;;;9.00;6.55;;;;;;;23.74;52.88;99512.03;2113333;27;20658;-68
2023/10/05 08:54:33;;;;;;;11.63;7.32;;;;;;;23.76;52.85;99509.09;2109878;27;20106;-69
2023/10/05 08:55:34;;;;;;;16.55;8.18;;;;;;;23.79;52.80;99514.06;2100638;28;20667;-69
2023/10/05 08:56:39;;;;;;;9.55;8.05;;;;;;;23.80;52.54;99515.75;2099288;28;20052;-70
2023/10/05 08:57:40;;;;;;;10.45;7.57;;;;;;;23.81;52.73;99504.69;2102913;27;20040;-70
2023/10/05 08:58:45;;;;;;;10.32;7.13;;;;;;;23.85;52.40;99497.81;2109563;27;20086;-70
2023/10/05 08:59:46;;;;;;;10.45;7.40;;;;;;;23.85;52.71;99505.94;2110940;27;20040;-69
2023/10/05 09:00:49;;;;;;;8.60;6.72;;;;;;;23.86;52.62;99499.44;2108103;27;20510;-70
2023/10/05 09:01:50;;;;;;;12.75;7.43;;;;;;;23.85;52.63;99497.81;2110929;27;20122;-69
2023/10/05 09:02:52;;;;;;;9.40;6.85;;;;;;;23.86;52.59;99498.63;2111726;27;20953;-70
2023/10/05 09:03:54;;;;;;;9.63;7.10;;;;;;;23.86;52.57;99499.44;2112532;27;20047;-69
2023/10/05 09:04:59;;;;;;;9.65;7.13;;;;;;;23.85;52.50;99505.94;2109234;27;20071;-71
2023/10/05 09:06:19;;;;;;;8.18;6.88;;;;;;;23.89;52.24;99508.19;2108618;27;20044;-68
2023/10/05 09:07:34;;;;;;;12.38;7.43;;;;;;;23.90;52.16;99517.97;2102553;28;20062;-69
2023/10/05 09:08:51;;;;;;;11.63;7.20;;;;;;;23.93;52.31;99517.53;2101544;27;20047;-69
2023/10/05 09:09:55;;;;;;;8.93;6.72;;;;;;;23.92;52.20;99519.44;2101784;28;20415;-70
2023/10/05 09:10:58;;;;;;;11.23;6.60;;;;;;;23.94;52.14;99511.09;2103647;28;20044;-71
2023/10/05 09:12:17;;;;;;;9.02;7.45;;;;;;;23.95;51.94;99510.84;2111325;27;20506;-69
2023/10/05 09:13:23;;;;;;;10.10;7.22;;;;;;;23.97;52.01;99499.81;2102151;28;20040;-68
2023/10/05 09:14:28;;;;;;;10.15;7.43;;;;;;;23.96;51.88;99506.25;2103804;28;20547;-71
2023/10/05 09:15:34;;;;;;;10.23;7.93;;;;;;;23.99;51.66;99503.16;2101640;28;20071;-70
2023/10/05 09:16:42;;;;;;;10.35;7.75;;;;;;;24.01;51.51;99507.28;2101323;28;20063;-69
2023/10/05 09:18:08;;;;;;;10.20;7.03;;;;;;;24.00;51.79;99502.09;2102578;27;20052;-69
2023/10/05 09:19:15;;;;;;;8.30;6.22;;;;;;;24.03;51.89;99502.47;2101993;28;20607;-70
2023/10/05 09:20:21;;;;;;;8.13;7.20;;;;;;;24.01;51.52;99495.59;2110692;27;20074;-69
2023/10/05 09:21:25;;;;;;;9.68;6.65;;;;;;;24.04;51.34;99492.47;2103690;27;20100;-71
2023/10/05 09:22:26;;;;;;;9.88;6.78;;;;;;;24.06;51.75;99493.06;2112601;27;20047;-70
2023/10/05 09:23:32;;;;;;;10.32;7.47;;;;;;;24.09;51.34;99498.06;2106645;27;20059;-70
2023/10/05 09:24:34;;;;;;;8.48;7.07;;;;;;;24.08;51.52;99488.28;2112707;27;21311;-69
2023/10/05 09:25:38;;;;;;;7.80;6.90;;;;;;;24.09;51.13;99489.94;2107986;27;20048;-70
2023/10/05 09:26:39;;;;;;;9.38;7.53;;;;;;;24.08;51.41;99488.28;2109260;27;20051;-70
2023/10/05 09:27:47;;;;;;;8.50;6.43;;;;;;;24.09;51.22;99487.22;2104026;27;20044;-70
2023/10/05 09:28:52;;;;;;;9.45;7.30;;;;;;;24.15;51.15;99489.03;2103180;28;20067;-70
2023/10/05 09:30:09;;;;;;;12.18;8.05;;;;;;;24.11;51.35;99495.16;2102276;28;20048;-70
2023/10/05 09:31:11;;;;;;;10.50;6.65;;;;;;;24.12;51.35;99486.78;2104834;28;20044;-70
2023/10/05 09:32:25;;;;;;;9.32;6.03;;;;;;;24.20;51.07;99486.50;2102526;28;20043;-72
2023/10/05 09:33:27;;;;;;;8.65;6.50;;;;;;;24.17;51.05;99494.25;2110283;27;20112;-69
2023/10/05 09:34:49;;;;;;;8.95;6.63;;;;;;;24.22;50.99;99486.31;2108274;27;20526;-70
2023/10/05 09:35:50;;;;;;;8.73;7.20;;;;;;;24.22;50.97;99491.72;2104742;27;20080;-70
2023/10/05 09:36:54;;;;;;;9.27;7.45;;;;;;;24.22;51.38;99487.13;2101364;28;20135;-70
2023/10/05 09:37:57;;;;;;;11.00;7.85;;;;;;;24.24;51.03;99489.63;2100971;28;20040;-71
2023/10/05 09:39:02;;;;;;;9.68;7.13;;;;;;;24.22;51.26;99489.84;2100653;28;20463;-70
2023/10/05 09:40:15;;;;;;;9.13;6.40;;;;;;;24.23;51.12;99483.34;2099579;28;20041;-69
2023/10/05 09:41:17;;;;;;;9.88;7.05;;;;;;;24.23;51.14;99485.25;2100883;27;20048;-69
2023/10/05 09:42:24;;;;;;;8.23;6.28;;;;;;;24.20;51.37;99481.09;2106533;27;20047;-70
2023/10/05 09:43:27;;;;;;;11.65;7.32;;;;;;;24.20;51.25;99483.81;2100982;28;20142;-69
2023/10/05 09:44:32;;;;;;;9.45;7.28;;;;;;;24.20;51.12;99478.38;2104211;27;20059;-69
2023/10/05 09:45:34;;;;;;;8.23;6.07;;;;;;;24.22;51.04;99475.47;2109549;27;20043;-71
2023/10/05 09:46:37;;;;;;;8.80;6.72;;;;;;;24.23;50.98;99472.53;2108174;27;20062;-72
2023/10/05 09:47:40;;;;;;;8.90;6.97;;;;;;;24.22;51.12;99467.34;2108114;27;20072;-71
2023/10/05 09:48:43;;;;;;;8.13;6.85;;;;;;;24.26;51.16;99468.53;2106426;27;20055;-72
2023/10/05 09:49:45;;;;;;;8.90;6.13;;;;;;;24.29;51.11;99465.38;2111472;27;20414;-69
2023/10/05 09:50:48;;;;;;;10.68;7.43;;;;;;;24.25;51.13;99470.44;2109084;27;20047;-70
2023/10/05 09:51:50;;;;;;;8.00;6.57;;;;;;;24.25;51.03;99469.59;2106872;27;20040;-70
2023/10/05 09:52:53;;;;;;;9.40;7.30;;;;;;;24.24;51.25;99460.66;2108609;27;20046;-69
2023/10/05 09:53:56;;;;;;;9.52;6.97;;;;;;;24.25;50.89;99466.88;2108412;27;20048;-69
2023/10/05 09:54:58;;;;;;;8.70;6.82;;;;;;;24.26;51.10;99463.13;2111420;27;20118;-69
2023/10/05 09:56:03;;;;;;;9.27;7.05;;;;;;;24.29;51.03;99466.25;2109168;27;20051;-70
2023/10/05 09:57:10;;;;;;;10.50;7.00;;;;;;;24.25;50.87;99470.44;2110911;27;20179;-69
2023/10/05 09:58:13;;;;;;;9.57;7.40;;;;;;;24.21;51.36;99465.66;2112361;27;20054;-70
2023/10/05 09:59:16;;;;;;;8.05;6.50;;;;;;;24.23;50.90;99471.69;2111917;28;20044;-71
2023/10/05 10:00:30;;;;;;;7.55;6.55;;;;;;;24.24;50.85;99471.47;2109034;27;20112;-73
2023/10/05 10:01:33;;;;;;;8.70;6.90;;;;;;;24.30;50.75;99462.47;2104567;27;20044;-70
2023/10/05 10:02:35;;;;;;;11.85;7.03;;;;;;;24.42;50.63;99469.88;2108793;28;20052;-70
2023/10/05 10:03:37;;;;;;;7.65;6.75;;;;;;;24.39;50.67;99464.91;2109803;27;20055;-70
2023/10/05 10:04:40;;;;;;;10.70;6.90;;;;;;;24.42;50.76;99459.03;2100906;27;20051;-72
2023/10/05 10:05:44;;;;;;;9.10;6.55;;;;;;;24.41;50.60;99463.63;2106152;28;20052;-71
2023/10/05 10:06:53;;;;;;;8.20;6.95;;;;;;;24.37;50.74;99461.56;2099672;28;20044;-70
2023/10/05 10:07:57;;;;;;;11.27;6.95;;;;;;;24.31;50.98;99461.41;2103361;28;20125;-70
2023/10/05 10:09:08;;;;;;;10.30;7.15;;;;;;;24.27;50.71;99460.19;2107722;28;20046;-69
2023/10/05 10:10:11;;;;;;;12.32;7.63;;;;;;;24.24;51.10;99455.22;2100890;27;20613;-72
2023/10/05 10:11:18;;;;;;;9.95;6.38;;;;;;;24.28;50.88;99464.56;2104644;28;20133;-70
2023/10/05 10:12:27;;;;;;;15.25;7.70;;;;;;;24.26;50.54;99466.66;2103281;28;20498;-70
2023/10/05 10:13:32;;;;;;;7.95;7.15;;;;;;;24.26;50.92;99455.81;2102673;28;20047;-72
2023/10/05 10:14:34;;;;;;;9.00;7.32;;;;;;;24.27;50.61;99454.78;2099938;28;20414;-70
2023/10/05 10:15:39;;;;;;;9.68;6.72;;;;;;;24.33;50.48;99454.94;2103207;27;20067;-72
2023/10/05 10:16:47;;;;;;;8.57;7.10;;;;;;;24.28;50.60;99459.13;2103863;28;20700;-69
2023/10/05 10:18:03;;;;;;;10.05;7.03;;;;;;;24.27;50.71;99452.06;2094563;28;20661;-70
2023/10/05 10:19:07;;;;;;;8.38;6.78;;;;;;;24.25;50.38;99454.16;2102456;28;20040;-69
2023/10/05 10:20:28;;;;;;;10.85;7.28;;;;;;;24.24;50.71;99457.09;2107063;27;20088;-70
2023/10/05 10:21:34;;;;;;;9.40;6.55;;;;;;;24.24;50.28;99460.66;2104116;28;20190;-71
2023/10/05 10:22:50;;;;;;;10.85;6.43;;;;;;;24.28;50.17;99459.13;2104370;28;20059;-70
2023/10/05 10:24:01;;;;;;;8.10;7.30;;;;;;;24.33;50.26;99458.47;2101512;28;20044;-71
2023/10/05 10:25:10;;;;;;;9.63;7.28;;;;;;;24.33;49.94;99458.47;2105674;28;20047;-72
2023/10/05 10:26:16;;;;;;;10.00;6.13;;;;;;;24.37;49.93;99453.44;2105357;28;21396;-70
2023/10/05 10:27:27;;;;;;;8.63;7.20;;;;;;;24.39;49.98;99454.88;2103419;28;20566;-69
2023/10/05 10:28:43;;;;;;;9.27;6.05;;;;;;;24.37;50.42;99456.16;2103603;27;20078;-72
2023/10/05 10:29:48;;;;;;;9.88;7.00;;;;;;;24.36;50.42;99455.31;2100758;28;20048;-69
2023/10/05 10:31:17;;;;;;;9.18;7.10;;;;;;;24.30;50.36;99453.50;2102462;28;20055;-69
2023/10/05 10:32:20;;;;;;;7.18;6.40;;;;;;;24.32;50.41;99454.09;2103055;27;20044;-70
2023/10/05 10:33:27;;;;;;;7.70;6.13;;;;;;;24.38;50.07;99457.84;2107064;27;20522;-69
2023/10/05 10:34:49;;;;;;;14.45;6.97;;;;;;;24.37;50.09;99451.56;2105378;27;20047;-69
2023/10/05 10:35:50;;;;;;;8.45;6.63;;;;;;;24.40;50.37;99461.13;2103941;28;20100;-69
2023/10/05 10:36:53;;;;;;;13.23;7.13;;;;;;;24.45;49.87;99450.47;2105591;27;20047;-70
2023/10/05 10:37:54;;;;;;;8.18;7.05;;;;;;;24.44;49.81;99456.97;2102587;27;20079;-72
2023/10/05 10:38:59;;;;;;;10.10;5.80;;;;;;;24.45;50.14;99450.47;2101484;27;20052;-70
2023/10/05 10:40:00;;;;;;;7.35;5.65;;;;;;;24.47;49.82;99448.38;2097027;28;20051;-72
2023/10/05 10:41:15;;;;;;;10.65;6.82;;;;;;;24.47;49.76;99449.22;2102519;27;20639;-68
2023/10/05 10:42:19;;;;;;;9.70;6.53;;;;;;;24.44;50.17;99451.53;2095744;28;20135;-69
2023/10/05 10:43:30;;;;;;;8.45;7.05;;;;;;;24.44;49.94;99452.38;2104039;28;20182;-72
2023/10/05 10:44:47;;;;;;;10.18;6.50;;;;;;;24.52;50.11;99443.94;2102805;28;20196;-69
2023/10/05 10:45:50;;;;;;;8.38;5.63;;;;;;;24.55;49.79;99445.41;2102518;28;20051;-69
2023/10/05 10:47:05;;;;;;;9.10;5.88;;;;;;;24.56;50.14;99438.91;2094379;28;20074;-70
2023/10/05 10:48:09;;;;;;;8.25;5.97;;;;;;;24.56;50.23;99438.91;2096313;28;20040;-70
2023/10/05 10:49:10;;;;;;;8.35;5.90;;;;;;;24.53;50.03;99440.19;2095567;28;20617;-69
2023/10/05 10:50:15;;;;;;;9.25;5.43;;;;;;;24.61;49.89;99435.53;2096734;28;20136;-68
2023/10/05 10:51:17;;;;;;;8.80;5.35;;;;;;;24.62;50.13;99431.75;2095768;28;20075;-67
2023/10/05 10:52:18;;;;;;;14.18;7.07;;;;;;;24.63;49.74;99439.69;2096505;28;20564;-68
2023/10/05 10:53:25;;;;;;;8.68;6.07;;;;;;;24.66;49.79;99433.81;2096127;28;20048;-68
2023/10/05 10:54:28;;;;;;;14.15;6.25;;;;;;;24.75;49.27;99431.63;2099558;28;20051;-67
2023/10/05 10:55:31;;;;;;;8.32;6.00;;;;;;;24.77;49.47;99434.09;2098914;28;20718;-68
2023/10/05 10:56:41;;;;;;;7.65;5.95;;;;;;;24.63;50.26;99422.59;2102571;27;20056;-69
2023/10/05 10:57:45;;;;;;;8.43;5.50;;;;;;;24.58;50.32;99419.72;2105348;28;20131;-69
2023/10/05 10:58:46;;;;;;;7.30;6.05;;;;;;;24.62;50.21;99424.44;2100964;27;20159;-68
2023/10/05 10:59:49;;;;;;;9.30;6.03;;;;;;;24.49;50.67;99420.00;2098270;28;20058;-68
2023/10/05 11:00:57;;;;;;;9.57;5.43;;;;;;;24.56;50.48;99417.22;2093048;28;20054;-68
2023/10/05 11:01:59;;;;;;;7.43;5.93;;;;;;;24.71;49.79;99414.13;2105026;28;20135;-70
2023/10/05 11:03:10;;;;;;;10.38;6.25;;;;;;;24.60;50.30;99417.56;2102536;28;20051;-69
2023/10/05 11:04:26;;;;;;;7.85;6.03;;;;;;;24.54;50.86;99408.47;2108172;27;20048;-69
2023/10/05 11:05:37;;;;;;;11.13;6.70;;;;;;;24.50;50.49;99416.22;2103195;28;20552;-71
2023/10/05 11:06:40;;;;;;;8.00;4.97;;;;;;;24.64;50.12;99413.38;2100231;28;20055;-71
2023/10/05 11:07:43;;;;;;;7.65;5.68;;;;;;;24.77;49.37;99409.69;2100930;28;20154;-70
2023/10/05 11:08:50;;;;;;;8.55;5.72;;;;;;;24.77;49.61;99412.41;2102934;27;20540;-69
2023/10/05 11:09:52;;;;;;;10.20;5.68;;;;;;;24.75;49.85;99405.31;2098897;27;20043;-70
2023/10/05 11:10:59;;;;;;;8.23;5.60;;;;;;;24.70;50.14;99407.88;2099284;28;20056;-67
2023/10/05 11:12:09;;;;;;;12.27;7.00;;;;;;;24.63;50.72;99409.84;2106071;28;20534;-68
2023/10/05 11:13:18;;;;;;;11.43;6.38;;;;;;;24.67;50.33;99402.91;2108362;27;20062;-67
2023/10/05 11:14:21;;;;;;;9.13;6.95;;;;;;;24.62;50.60;99404.63;2104923;28;20059;-68
2023/10/05 11:15:28;;;;;;;8.27;5.85;;;;;;;24.62;50.35;99412.78;2106094;28;20061;-69
2023/10/05 11:16:43;;;;;;;15.40;6.25;;;;;;;24.52;50.95;99408.69;2099089;28;20109;-67
2023/10/05 11:17:45;;;;;;;6.35;5.72;;;;;;;24.50;50.61;99401.84;2101432;28;21149;-67
2023/10/05 11:18:57;;;;;;;10.30;7.03;;;;;;;24.48;50.86;99401.22;2094389;27;20054;-67
2023/10/05 11:20:14;;;;;;;8.45;6.28;;;;;;;24.48;50.43;99398.50;2107204;28;20414;-67
2023/10/05 11:21:17;;;;;;;10.40;7.20;;;;;;;24.49;50.24;99400.19;2100546;28;20170;-69
2023/10/05 11:22:24;;;;;;;9.50;6.35;;;;;;;24.63;49.75;99393.56;2108557;28;20056;-68
2023/10/05 11:23:25;;;;;;;6.70;5.80;;;;;;;24.75;49.75;99388.22;2107633;28;20047;-69
2023/10/05 11:24:26;;;;;;;8.43;6.55;;;;;;;24.70;49.74;99391.59;2099687;28;20051;-68
2023/10/05 11:25:33;;;;;;;12.77;6.10;;;;;;;24.84;49.57;99386.84;2107835;28;20104;-67
2023/10/05 11:27:05;;;;;;;9.48;6.10;;;;;;;24.74;49.82;99387.41;2103972;27;20044;-67
2023/10/05 11:28:12;;;;;;;7.68;5.90;;;;;;;24.70;50.08;99385.34;2105431;28;20498;-67
2023/10/05 11:29:15;;;;;;;14.00;7.03;;;;;;;24.74;49.94;99381.97;2107102;28;20051;-67
2023/10/05 11:30:21;;;;;;;10.73;6.65;;;;;;;24.78;49.78;99385.06;2104905;27;20047;-69
2023/10/05 11:31:24;;;;;;;7.75;6.28;;;;;;;24.72;50.55;99384.06;2089079;28;20071;-67
2023/10/05 11:32:27;;;;;;;9.43;6.40;;;;;;;24.71;50.30;99385.13;2102226;28;20056;-68
2023/10/05 11:33:34;;;;;;;11.55;6.40;;;;;;;24.68;50.35;99382.88;2106902;28;20051;-68
2023/10/05 11:34:39;;;;;;;8.38;6.38;;;;;;;24.79;49.79;99380.44;2104714;28;20062;-67
2023/10/05 11:35:48;;;;;;;15.07;6.72;;;;;;;24.82;49.42;99377.28;2104754;27;20050;-68
2023/10/05 11:36:52;;;;;;;8.25;6.72;;;;;;;24.72;50.00;99375.94;2098579;28;20039;-66
2023/10/05 11:37:58;;;;;;;9.95;5.80;;;;;;;24.83;49.72;99376.25;2104541;28;20074;-67
2023/10/05 11:39:00;;;;;;;7.15;5.90;;;;;;;24.87;49.34;99366.59;2097571;28;20064;-67
2023/10/05 11:40:04;;;;;;;8.38;6.25;;;;;;;24.90;49.24;99369.66;2101937;28;20043;-69
2023/10/05 11:41:09;;;;;;;8.52;6.40;;;;;;;24.86;49.31;99364.94;2104689;27;20481;-69
2023/10/05 11:42:11;;;;;;;6.90;5.90;;;;;;;24.86;49.41;99364.94;2107558;28;20058;-67
2023/10/05 11:43:13;;;;;;;7.70;6.32;;;;;;;24.82;49.88;99352.88;2107864;27;20054;-67
2023/10/05 11:44:20;;;;;;;7.25;6.50;;;;;;;24.83;49.50;99362.69;2105065;28;20044;-67
2023/10/05 11:45:22;;;;;;;8.73;6.68;;;;;;;24.78;50.01;99359.81;2100027;27;20063;-69
2023/10/05 11:46:26;;;;;;;9.18;5.63;;;;;;;24.75;49.81;99359.19;2101021;28;20426;-68
2023/10/05 11:47:35;;;;;;;7.03;5.82;;;;;;;24.79;49.63;99359.56;2101489;28;20144;-70
2023/10/05 11:48:41;;;;;;;8.00;6.50;;;;;;;24.92;49.12;99353.16;2106069;28;20048;-69
2023/10/05 11:49:45;;;;;;;9.38;6.28;;;;;;;24.82;49.87;99342.00;2105944;28;20123;-68
2023/10/05 11:50:51;;;;;;;7.78;6.22;;;;;;;24.79;50.27;99358.75;2104320;28;20043;-68
2023/10/05 11:51:56;;;;;;;7.90;6.13;;;;;;;24.87;49.58;99348.41;2105889;28;20127;-68
2023/10/05 11:52:57;;;;;;;8.38;5.75;;;;;;;24.87;49.96;99351.13;2107436;27;20048;-69
2023/10/05 11:53:59;;;;;;;7.90;6.20;;;;;;;24.90;49.54;99347.13;2106060;28;20059;-71
2023/10/05 11:55:00;;;;;;;12.25;6.47;;;;;;;24.92;49.72;99345.84;2103957;28;20046;-68
2023/10/05 11:56:00;;;;;;;7.43;5.88;;;;;;;24.95;49.01;99347.28;2104309;28;20134;-68
2023/10/05 11:57:05;;;;;;;10.27;5.85;;;;;;;24.94;49.56;99342.91;2102477;28;20043;-68
2023/10/05 11:58:08;;;;;;;12.52;6.40;;;;;;;24.83;49.97;99340.97;2104217;27;20920;-68
2023/10/05 11:59:10;;;;;;;9.98;5.80;;;;;;;24.92;49.38;99347.75;2102081;27;20036;-70
2023/10/05 12:00:15;;;;;;;9.30;6.25;;;;;;;25.02;49.35;99337.19;2103150;28;20048;-69
2023/10/05 12:01:19;;;;;;;9.45;6.05;;;;;;;24.96;49.66;99341.63;2093943;28;20465;-70
2023/10/05 12:02:22;;;;;;;9.52;5.90;;;;;;;24.98;49.68;99349.53;2103604;27;20051;-67
2023/10/05 12:03:26;;;;;;;7.43;6.13;;;;;;;25.02;49.66;99339.91;2098644;28;20061;-68
2023/10/05 12:04:27;;;;;;;7.68;6.50;;;;;;;24.94;49.53;99348.34;2104158;27;20063;-70
2023/10/05 12:05:30;;;;;;;9.60;6.22;;;;;;;24.94;49.29;99342.91;2104432;28;20127;-68
2023/10/05 12:06:31;;;;;;;11.55;6.32;;;;;;;24.93;49.61;99342.09;2102209;27;20048;-69
2023/10/05 12:07:33;;;;;;;10.18;6.57;;;;;;;24.95;49.70;99341.84;2104209;28;20040;-69
2023/10/05 12:08:34;;;;;;;9.35;6.30;;;;;;;24.95;49.31;99348.09;2103419;28;20047;-68
2023/10/05 12:09:42;;;;;;;10.25;6.25;;;;;;;24.95;49.43;99344.56;2105544;28;20048;-70
2023/10/05 12:10:45;;;;;;;6.63;5.35;;;;;;;25.00;49.37;99341.19;2102422;28;20514;-68
2023/10/05 12:11:51;;;;;;;7.38;6.28;;;;;;;24.97;49.34;99345.19;2103513;28;20048;-69
2023/10/05 12:12:52;;;;;;;8.30;5.93;;;;;;;24.92;49.91;99339.59;2101966;28;20138;-70
2023/10/05 12:13:56;;;;;;;10.82;5.82;;;;;;;24.97;49.62;99331.59;2104405;28;20062;-68
2023/10/05 12:15:00;;;;;;;6.53;5.82;;;;;;;25.07;49.05;99334.59;2097544;28;20056;-70
2023/10/05 12:16:11;;;;;;;7.75;6.32;;;;;;;25.08;49.04;99333.53;2101974;28;20047;-70
2023/10/05 12:17:12;;;;;;;7.07;5.50;;;;;;;24.94;49.36;99341.03;2099784;28;20075;-68
2023/10/05 12:18:14;;;;;;;12.95;7.13;;;;;;;25.09;48.99;99335.19;2104936;28;20048;-68
2023/10/05 12:19:15;;;;;;;7.10;5.55;;;;;;;25.18;48.12;99335.72;2101108;28;20048;-65
2023/10/05 12:20:18;;;;;;;8.85;5.50;;;;;;;25.18;48.73;99333.88;2101642;28;20059;-70
2023/10/05 12:21:19;;;;;;;9.00;5.85;;;;;;;25.17;48.61;99334.91;2103138;28;20055;-67
2023/10/05 12:22:22;;;;;;;12.77;5.70;;;;;;;25.12;48.68;99332.03;2102149;27;20047;-68
2023/10/05 12:23:23;;;;;;;8.77;5.68;;;;;;;25.02;48.63;99331.75;2096897;28;20062;-70
2023/10/05 12:24:26;;;;;;;8.75;5.78;;;;;;;25.00;48.70;99331.16;2092065;28;20503;-70
2023/10/05 12:25:27;;;;;;;9.73;5.45;;;;;;;24.99;49.01;99329.50;2103313;28;20124;-68
2023/10/05 12:26:29;;;;;;;8.13;6.00;;;;;;;24.95;49.04;99336.44;2095431;28;20047;-70
2023/10/05 12:27:32;;;;;;;6.38;5.40;;;;;;;24.92;49.33;99320.59;2101874;28;20043;-68
2023/10/05 12:28:34;;;;;;;7.25;6.47;;;;;;;24.91;48.92;99329.81;2104724;28;20100;-68
2023/10/05 12:29:35;;;;;;;7.72;6.35;;;;;;;24.90;49.59;99320.00;2105060;28;20091;-68
2023/10/05 12:30:37;;;;;;;13.27;6.38;;;;;;;24.92;49.57;99320.59;2101549;27;20127;-70
2023/10/05 12:31:39;;;;;;;8.07;5.47;;;;;;;24.99;48.76;99318.66;2104868;28;20625;-69
2023/10/05 12:32:41;;;;;;;7.80;6.43;;;;;;;24.97;49.58;99320.75;2105271;27;20047;-70
2023/10/05 12:33:43;;;;;;;8.65;6.38;;;;;;;24.94;49.40;99323.94;2105866;27;20057;-70
2023/10/05 12:34:47;;;;;;;8.68;5.55;;;;;;;24.96;49.43;99317.22;2107077;28;20411;-67
2023/10/05 12:35:52;;;;;;;8.43;6.90;;;;;;;24.98;49.31;99312.38;2100627;28;20112;-68
2023/10/05 12:36:53;;;;;;;7.18;5.53;;;;;;;24.92;49.60;99316.00;2105119;28;20055;-69
2023/10/05 12:37:58;;;;;;;6.40;5.63;;;;;;;24.98;49.06;99316.97;2103827;28;20051;-68
2023/10/05 12:38:59;;;;;;;9.38;6.15;;;;;;;25.05;48.98;99319.63;2105806;28;20055;-68
2023/10/05 12:40:17;;;;;;;9.35;5.50;;;;;;;25.11;48.63;99319.50;2098420;28;20510;-68
2023/10/05 12:41:18;;;;;;;10.30;5.80;;;;;;;24.94;49.29;99319.31;2104598;27;20078;-69
2023/10/05 12:42:20;;;;;;;6.45;5.80;;;;;;;25.00;48.86;99320.28;2104406;28;20056;-68
2023/10/05 12:43:21;;;;;;;13.93;6.22;;;;;;;24.97;49.23;99318.03;2103484;28;20043;-70
2023/10/05 12:44:23;;;;;;;7.85;5.43;;;;;;;24.97;49.03;99310.72;2101347;28;20043;-69
2023/10/05 12:45:24;;;;;;;7.20;5.07;;;;;;;24.92;49.26;99310.56;2105414;28;20130;-68
2023/10/05 12:46:32;;;;;;;6.88;5.45;;;;;;;24.92;49.07;99310.56;2107906;28;20059;-68
2023/10/05 12:47:36;;;;;;;11.27;5.93;;;;;;;24.95;48.96;99310.13;2105622;28;20039;-70
2023/10/05 12:48:39;;;;;;;10.75;5.95;;;;;;;24.97;48.55;99309.91;2105327;28;20047;-69
2023/10/05 12:49:40;;;;;;;7.30;5.57;;;;;;;25.04;48.74;99316.03;2104320;28;20039;-69
2023/10/05 12:50:42;;;;;;;7.93;6.65;;;;;;;25.02;48.31;99311.91;2105109;28;20080;-70
2023/10/05 12:51:46;;;;;;;10.63;6.85;;;;;;;24.97;48.73;99315.31;2104914;27;20805;-68
2023/10/05 12:52:50;;;;;;;9.23;6.03;;;;;;;24.96;48.79;99308.22;2103844;28;20044;-68
2023/10/05 12:53:52;;;;;;;12.70;6.13;;;;;;;24.97;49.06;99313.44;2106065;28;21792;-68
2023/10/05 12:54:53;;;;;;;7.13;5.93;;;;;;;24.96;48.93;99305.50;2104345;28;20052;-70
2023/10/05 12:55:56;;;;;;;8.25;6.05;;;;;;;25.01;48.78;99311.09;2107617;28;20131;-69
2023/10/05 12:57:08;;;;;;;6.40;4.90;;;;;;;25.00;48.74;99319.47;2104101;28;20536;-68
2023/10/05 12:58:11;;;;;;;5.68;5.18;;;;;;;24.97;48.74;99315.31;2103704;27;20534;-70
2023/10/05 12:59:11;;;;;;;9.68;5.60;;;;;;;24.95;48.96;99309.28;2095752;28;20674;-68
2023/10/05 13:00:19;;;;;;;7.35;5.65;;;;;;;24.88;49.37;99322.13;2099014;28;20043;-67
2023/10/05 13:01:26;;;;;;;11.48;6.03;;;;;;;24.88;49.10;99316.72;2099681;28;20051;-69
2023/10/05 13:02:27;;;;;;;7.68;5.82;;;;;;;24.87;49.05;99309.59;2104216;28;20141;-68
2023/10/05 13:03:30;;;;;;;6.40;5.80;;;;;;;24.93;48.81;99317.69;2106067;28;20056;-68
2023/10/05 13:04:31;;;;;;;10.73;6.38;;;;;;;24.99;48.30;99313.22;2099099;28;20127;-69
2023/10/05 13:05:39;;;;;;;7.70;5.47;;;;;;;24.90;48.84;99311.84;2105101;27;21131;-70
2023/10/05 13:06:41;;;;;;;8.50;5.82;;;;;;;24.94;48.90;99311.19;2104114;28;20044;-68
2023/10/05 13:07:43;;;;;;;8.05;5.70;;;;;;;24.96;48.79;99303.66;2105516;28;20532;-70
2023/10/05 13:08:45;;;;;;;7.13;5.97;;;;;;;24.96;48.52;99308.22;2105853;28;20055;-70
2023/10/05 13:09:47;;;;;;;6.93;5.15;;;;;;;24.94;48.61;99302.22;2107053;28;20047;-68
2023/10/05 13:10:48;;;;;;;9.38;6.05;;;;;;;24.96;48.39;99302.78;2105377;27;20052;-68
2023/10/05 13:11:50;;;;;;;6.75;5.55;;;;;;;25.05;48.33;99300.63;2104515;27;20658;-70
2023/10/05 13:12:51;;;;;;;7.13;5.93;;;;;;;24.96;48.94;99303.66;2102672;28;20051;-68
2023/10/05 13:13:53;;;;;;;7.03;5.13;;;;;;;24.94;49.05;99302.22;2101995;28;20062;-68
2023/10/05 13:14:54;;;;;;;6.75;5.40;;;;;;;24.91;48.58;99302.69;2092841;27;21034;-68
2023/10/05 13:15:55;;;;;;;6.80;5.50;;;;;;;24.89;48.88;99302.06;2094081;28;20052;-68
2023/10/05 13:16:57;;;;;;;10.32;6.07;;;;;;;24.86;48.89;99303.34;2096918;28;20078;-68
2023/10/05 13:18:15;;;;;;;7.38;4.90;;;;;;;24.87;48.36;99305.00;2105802;28;20146;-68
2023/10/05 13:19:19;;;;;;;8.85;6.07;;;;;;;24.83;48.58;99297.56;2090869;28;20060;-70
2023/10/05 13:20:26;;;;;;;8.77;5.55;;;;;;;24.90;47.90;99301.00;2095214;28;20130;-69
2023/10/05 13:21:28;;;;;;;7.72;6.15;;;;;;;24.84;48.30;99297.31;2102234;27;20055;-68
2023/10/05 13:22:29;;;;;;;7.30;5.85;;;;;;;24.83;48.98;99298.38;2104009;28;20417;-68
2023/10/05 13:23:33;;;;;;;6.95;6.25;;;;;;;24.84;48.56;99300.03;2103005;28;20510;-68
2023/10/05 13:24:36;;;;;;;10.77;5.47;;;;;;;24.84;48.44;99300.03;2106022;28;20059;-68
2023/10/05 13:25:39;;;;;;;8.77;6.57;;;;;;;24.84;48.91;99299.22;2102874;28;20043;-69
2023/10/05 13:26:44;;;;;;;7.32;6.43;;;;;;;24.81;48.07;99296.97;2101902;28;20064;-68
2023/10/05 13:27:46;;;;;;;11.57;6.80;;;;;;;24.79;48.76;99299.06;2105944;28;20093;-69
2023/10/05 13:28:48;;;;;;;8.73;5.82;;;;;;;24.86;48.25;99302.53;2103147;28;20048;-69
2023/10/05 13:29:50;;;;;;;9.40;5.55;;;;;;;24.90;48.33;99295.56;2102047;28;20070;-69
2023/10/05 13:30:51;;;;;;;9.73;5.72;;;;;;;24.86;48.24;99299.81;2103157;28;20116;-67
2023/10/05 13:31:55;;;;;;;11.20;6.88;;;;;;;24.83;48.85;99292.13;2102092;28;20129;-69
2023/10/05 13:33:07;;;;;;;8.45;5.95;;;;;;;24.86;48.32;99297.94;2103574;28;20055;-70
2023/10/05 13:34:16;;;;;;;8.23;6.22;;;;;;;24.83;48.22;99298.38;2101807;28;20135;-69
2023/10/05 13:35:18;;;;;;;8.98;6.43;;;;;;;24.83;48.29;99297.56;2105030;28;20055;-67
2023/10/05 13:36:20;;;;;;;7.10;6.28;;;;;;;24.85;48.01;99307.13;2097581;28;20142;-70
2023/10/05 13:37:23;;;;;;;7.05;5.75;;;;;;;24.84;47.96;99302.75;2106659;28;20506;-67
2023/10/05 13:38:28;;;;;;;7.32;5.65;;;;;;;24.83;48.57;99294.84;2104220;28;20135;-68
2023/10/05 13:39:29;;;;;;;7.15;5.93;;;;;;;24.83;48.18;99303.00;2096783;27;25909;-69
2023/10/05 13:40:34;;;;;;;7.03;5.97;;;;;;;24.82;48.39;99298.59;2102959;28;20136;-68
2023/10/05 13:41:37;;;;;;;8.45;5.82;;;;;;;24.85;48.04;99298.13;2104047;28;20051;-69
2023/10/05 13:42:37;;;;;;;7.60;6.65;;;;;;;24.83;48.08;99297.56;2103399;28;20134;-70
2023/10/05 13:43:40;;;;;;;8.25;7.07;;;;;;;24.80;48.53;99293.41;2102800;28;20111;-71
2023/10/05 13:44:41;;;;;;;8.27;5.68;;;;;;;24.79;48.19;99296.34;2103458;28;20142;-69
2023/10/05 13:45:45;;;;;;;7.13;5.40;;;;;;;24.81;48.06;99295.06;2103958;28;20055;-70
2023/10/05 13:46:46;;;;;;;9.15;7.22;;;;;;;24.80;48.02;99298.03;2103846;27;20519;-70
2023/10/05 13:47:48;;;;;;;9.32;6.55;;;;;;;24.79;47.58;99297.16;2096469;28;20044;-68
2023/10/05 13:48:53;;;;;;;6.28;5.68;;;;;;;24.80;48.35;99292.59;2096126;28;20132;-70
2023/10/05 13:49:56;;;;;;;7.63;6.40;;;;;;;24.81;47.81;99294.25;2098484;28;20049;-67
2023/10/05 13:50:58;;;;;;;10.88;7.78;;;;;;;24.80;47.98;99292.59;2093552;28;20605;-69
2023/10/05 13:52:05;;;;;;;6.75;5.07;;;;;;;24.85;47.51;99284.56;2098149;28;20048;-68
2023/10/05 13:53:09;;;;;;;7.30;5.25;;;;;;;24.84;47.53;99282.94;2095849;28;20519;-68
2023/10/05 13:54:15;;;;;;;7.53;5.93;;;;;;;24.86;47.80;99284.34;2096633;28;20076;-68
2023/10/05 13:55:19;;;;;;;9.50;6.78;;;;;;;24.88;47.47;99279.53;2097857;28;20066;-68
2023/10/05 13:56:27;;;;;;;6.80;5.70;;;;;;;24.89;47.69;99275.75;2097734;28;20563;-68
2023/10/05 13:57:28;;;;;;;10.38;5.78;;;;;;;24.86;47.80;99278.13;2109070;28;20043;-68